Time;durP1;ratioP1;P1;durP2;ratioP2;P2;SDS_P1;SDS_P2;PMS_P1;PMS_P2;Temp;Humidity;BMP_temperature;BMP_pressure;BME280_temperature;BME280_humidity;BME280_pressure;Samples;Min_cycle;Max_cycle;Signal;HPM_P1;HPM_P2
2023/06/12 00:00:22;;;;;;;4.87;4.00;;;13.40;74.30;;;;;;2089674;28;20271;-66
2023/06/12 00:01:23;;;;;;;4.40;4.00;;;13.40;74.60;;;;;;2096712;28;20273;-65
2023/06/12 00:02:25;;;;;;;5.50;4.30;;;13.40;74.80;;;;;;2105147;28;20226;-67
2023/06/12 00:03:26;;;;;;;5.07;4.57;;;13.40;74.80;;;;;;2105270;28;20226;-66
2023/06/12 00:04:29;;;;;;;5.72;5.15;;;13.40;74.90;;;;;;2104565;28;20223;-66
2023/06/12 00:05:30;;;;;;;4.78;4.13;;;13.40;74.90;;;;;;2088335;28;20286;-66
2023/06/12 00:06:31;;;;;;;5.80;4.50;;;13.40;75.20;;;;;;2099982;28;20740;-65
2023/06/12 00:07:32;;;;;;;6.05;4.22;;;13.40;75.40;;;;;;2096228;28;20227;-66
2023/06/12 00:08:33;;;;;;;5.30;4.80;;;13.40;75.10;;;;;;2104388;28;20657;-65
2023/06/12 00:09:34;;;;;;;5.45;4.72;;;13.40;75.10;;;;;;2096886;28;20227;-65
2023/06/12 00:10:35;;;;;;;6.30;4.20;;;13.40;74.90;;;;;;2094318;28;20242;-65
2023/06/12 00:11:40;;;;;;;4.55;3.83;;;13.40;74.40;;;;;;2104687;28;20236;-65
2023/06/12 00:12:41;;;;;;;7.35;4.43;;;13.40;74.20;;;;;;2105593;28;20275;-65
2023/06/12 00:13:45;;;;;;;5.88;4.65;;;13.30;74.60;;;;;;2104045;28;20214;-65
2023/06/12 00:14:45;;;;;;;5.55;4.18;;;13.30;74.40;;;;;;2104814;28;20223;-66
2023/06/12 00:15:46;;;;;;;5.00;4.13;;;13.30;73.90;;;;;;2104535;28;20245;-66
2023/06/12 00:16:48;;;;;;;9.33;4.23;;;13.30;74.00;;;;;;2104086;28;20700;-67
2023/06/12 00:17:49;;;;;;;4.80;3.83;;;13.30;73.80;;;;;;2096191;28;20342;-66
2023/06/12 00:18:51;;;;;;;4.47;3.90;;;13.30;73.50;;;;;;2104729;28;20318;-67
2023/06/12 00:19:52;;;;;;;4.65;4.10;;;13.30;73.50;;;;;;2105355;28;20240;-66
2023/06/12 00:20:53;;;;;;;5.20;3.87;;;13.30;73.10;;;;;;2101327;28;20227;-66
2023/06/12 00:21:53;;;;;;;4.67;3.80;;;13.30;73.40;;;;;;2104759;28;20219;-66
2023/06/12 00:22:54;;;;;;;5.73;4.30;;;13.30;73.30;;;;;;2096294;28;20222;-67
2023/06/12 00:23:55;;;;;;;4.37;3.70;;;13.30;73.10;;;;;;2105222;28;20223;-67
2023/06/12 00:24:56;;;;;;;4.27;3.87;;;13.30;73.30;;;;;;2098989;28;20231;-67
2023/06/12 00:25:56;;;;;;;3.90;3.50;;;13.30;73.00;;;;;;2109073;27;20418;-67
2023/06/12 00:26:57;;;;;;;3.63;3.33;;;13.20;73.00;;;;;;2101875;28;20227;-67
2023/06/12 00:27:58;;;;;;;5.30;3.77;;;13.20;73.40;;;;;;2104157;28;20674;-67
2023/06/12 00:28:58;;;;;;;4.00;3.60;;;13.20;73.80;;;;;;2104211;28;20223;-67
2023/06/12 00:29:59;;;;;;;4.30;3.60;;;13.20;74.00;;;;;;2103927;28;20589;-67
2023/06/12 00:31:00;;;;;;;5.32;3.75;;;13.20;74.00;;;;;;2096005;28;20226;-68
2023/06/12 00:32:01;;;;;;;5.60;4.40;;;13.20;74.20;;;;;;2102919;28;20214;-69
2023/06/12 00:33:01;;;;;;;4.80;4.30;;;13.20;74.80;;;;;;2104251;28;20203;-67
2023/06/12 00:34:02;;;;;;;6.37;3.93;;;13.20;74.70;;;;;;2095984;28;20186;-67
2023/06/12 00:35:03;;;;;;;4.40;3.80;;;13.20;74.60;;;;;;2104154;28;20275;-67
2023/06/12 00:36:04;;;;;;;4.60;3.60;;;13.10;74.80;;;;;;2095977;28;20198;-67
2023/06/12 00:37:05;;;;;;;4.53;3.97;;;13.10;74.90;;;;;;2088011;28;20896;-67
2023/06/12 00:38:06;;;;;;;4.20;3.77;;;13.10;75.00;;;;;;2095033;28;20208;-68
2023/06/12 00:39:07;;;;;;;4.07;3.67;;;13.10;75.10;;;;;;2095612;28;20218;-67
2023/06/12 00:40:11;;;;;;;4.30;3.90;;;13.10;75.00;;;;;;2096291;28;20294;-67
2023/06/12 00:41:12;;;;;;;4.93;4.05;;;13.10;75.00;;;;;;2076761;28;20239;-66
2023/06/12 00:42:13;;;;;;;4.00;3.60;;;13.10;75.10;;;;;;2079673;28;20796;-66
2023/06/12 00:43:15;;;;;;;4.00;3.60;;;13.00;75.30;;;;;;2092794;28;20195;-66
2023/06/12 00:44:15;;;;;;;3.97;3.45;;;12.90;75.30;;;;;;2094487;28;20273;-66
2023/06/12 00:45:20;;;;;;;7.53;3.50;;;12.90;75.10;;;;;;2084644;28;20257;-66
2023/06/12 00:46:22;;;;;;;5.07;3.75;;;12.90;75.20;;;;;;2088416;28;20668;-66
2023/06/12 00:47:24;;;;;;;4.43;3.90;;;12.90;75.00;;;;;;2085932;28;20228;-66
2023/06/12 00:48:26;;;;;;;4.00;3.60;;;12.90;75.60;;;;;;2096890;28;20249;-66
2023/06/12 00:49:26;;;;;;;4.60;3.80;;;12.90;75.00;;;;;;2096399;28;20238;-66
2023/06/12 00:50:28;;;;;;;3.97;3.50;;;12.80;75.10;;;;;;2096027;28;20351;-66
2023/06/12 00:51:29;;;;;;;4.72;4.05;;;12.80;76.00;;;;;;2096675;28;20262;-66
2023/06/12 00:52:34;;;;;;;4.50;3.80;;;12.90;76.10;;;;;;2100302;28;20676;-67
2023/06/12 00:53:35;;;;;;;6.03;4.30;;;12.80;76.50;;;;;;2102244;28;20218;-67
2023/06/12 00:54:36;;;;;;;4.20;3.80;;;12.70;76.10;;;;;;2096506;28;20226;-66
2023/06/12 00:55:37;;;;;;;3.93;3.50;;;12.80;76.30;;;;;;2101956;28;20525;-67
2023/06/12 00:56:38;;;;;;;4.90;3.83;;;12.80;76.30;;;;;;2104822;28;20222;-66
2023/06/12 00:57:39;;;;;;;6.20;3.80;;;12.80;76.10;;;;;;2101561;28;20774;-66
2023/06/12 00:58:40;;;;;;;4.93;3.63;;;12.80;76.30;;;;;;2105155;28;20300;-66
2023/06/12 00:59:41;;;;;;;5.80;4.15;;;12.70;76.20;;;;;;2104720;28;20597;-66
2023/06/12 01:00:43;;;;;;;3.93;3.53;;;12.70;76.40;;;;;;2102031;28;20262;-66
2023/06/12 01:01:43;;;;;;;4.90;3.80;;;12.80;76.40;;;;;;2103249;28;20478;-67
2023/06/12 01:02:51;;;;;;;4.20;3.73;;;12.80;76.30;;;;;;2103934;28;20663;-66
2023/06/12 01:03:57;;;;;;;3.78;3.38;;;12.80;76.30;;;;;;2102692;28;20329;-66
2023/06/12 01:04:59;;;;;;;6.60;4.80;;;12.80;76.00;;;;;;2104042;28;20230;-66
2023/06/12 01:06:09;;;;;;;3.92;3.58;;;12.80;75.60;;;;;;2097189;28;20231;-66
2023/06/12 01:07:33;;;;;;;4.10;3.70;;;12.90;75.50;;;;;;2101915;28;20219;-66
2023/06/12 01:08:53;;;;;;;4.10;3.60;;;12.80;75.50;;;;;;2103531;28;20235;-66
2023/06/12 01:10:13;;;;;;;4.60;3.97;;;12.80;76.00;;;;;;2103257;28;20712;-66
2023/06/12 01:11:14;;;;;;;4.85;4.05;;;12.80;77.70;;;;;;2094912;28;20222;-66
2023/06/12 01:12:16;;;;;;;4.78;3.92;;;12.70;77.10;;;;;;2095948;28;20221;-66
2023/06/12 01:13:18;;;;;;;4.30;3.90;;;12.70;77.40;;;;;;2092840;28;20187;-66
2023/06/12 01:14:20;;;;;;;4.85;4.03;;;12.70;77.70;;;;;;2088953;28;20181;-66
2023/06/12 01:15:22;;;;;;;4.53;4.13;;;12.70;77.80;;;;;;2087963;28;20222;-66
2023/06/12 01:16:23;;;;;;;4.53;4.03;;;12.60;78.00;;;;;;2105667;28;20237;-66
2023/06/12 01:17:27;;;;;;;5.43;4.27;;;12.60;78.10;;;;;;2102003;28;20283;-67
2023/06/12 01:18:29;;;;;;;6.75;3.92;;;12.60;78.30;;;;;;2103996;28;20230;-66
2023/06/12 01:19:30;;;;;;;4.60;4.05;;;12.60;78.50;;;;;;2096190;28;20304;-66
2023/06/12 01:20:30;;;;;;;4.37;3.70;;;12.50;78.50;;;;;;2103886;28;20242;-66
2023/06/12 01:21:32;;;;;;;4.73;4.17;;;12.50;78.40;;;;;;2100037;28;20235;-66
2023/06/12 01:23:01;;;;;;;5.18;4.30;;;12.50;78.40;;;;;;2101417;28;20632;-67
2023/06/12 01:24:38;;;;;;;4.18;3.78;;;12.50;78.40;;;;;;2094574;28;20231;-67
2023/06/12 01:26:17;;;;;;;4.80;4.32;;;12.50;78.20;;;;;;2102804;28;20287;-67
2023/06/12 01:28:11;;;;;;;4.35;3.85;;;12.40;78.80;;;;;;2098764;28;20219;-67
2023/06/12 01:29:33;;;;;;;5.07;4.07;;;12.30;79.60;;;;;;2061402;28;20696;-66
2023/06/12 01:31:13;;;;;;;4.03;3.63;;;12.30;80.20;;;;;;2062622;28;20237;-66
2023/06/12 01:32:18;;;;;;;4.55;4.15;;;12.20;80.40;;;;;;2093242;28;20223;-66
2023/06/12 01:33:30;;;;;;;4.53;4.13;;;12.20;81.00;;;;;;2095522;28;20238;-66
2023/06/12 01:34:50;;;;;;;6.13;4.43;;;12.20;81.00;;;;;;2093508;28;20232;-66
2023/06/12 01:35:53;;;;;;;6.75;5.10;;;12.20;80.80;;;;;;2102911;28;20233;-67
2023/06/12 01:37:05;;;;;;;4.80;4.30;;;12.20;80.80;;;;;;2103523;28;20305;-66
2023/06/12 01:38:21;;;;;;;6.72;4.60;;;12.20;80.90;;;;;;2092497;28;20270;-67
2023/06/12 01:39:26;;;;;;;4.50;4.10;;;12.20;80.60;;;;;;2089536;28;20266;-67
2023/06/12 01:40:30;;;;;;;5.40;3.92;;;12.10;80.50;;;;;;2088065;28;20771;-66
2023/06/12 01:41:32;;;;;;;4.97;4.20;;;12.20;80.40;;;;;;2092880;28;20310;-66
2023/06/12 01:42:34;;;;;;;5.28;4.65;;;12.10;80.40;;;;;;2103472;28;20237;-68
2023/06/12 01:43:36;;;;;;;4.97;4.18;;;12.10;80.30;;;;;;2094822;28;20728;-66
2023/06/12 01:44:37;;;;;;;6.82;4.45;;;12.10;81.30;;;;;;2086948;28;20236;-66
2023/06/12 01:45:38;;;;;;;5.40;4.27;;;12.10;80.10;;;;;;2101270;28;20389;-67
2023/06/12 01:46:39;;;;;;;5.43;4.78;;;12.20;81.30;;;;;;2103447;28;20233;-66
2023/06/12 01:47:40;;;;;;;5.60;4.38;;;12.20;80.50;;;;;;2103820;28;20277;-67
2023/06/12 01:48:41;;;;;;;4.77;4.30;;;12.20;80.60;;;;;;2095165;28;20227;-67
2023/06/12 01:49:41;;;;;;;4.43;3.73;;;12.10;80.80;;;;;;2095803;28;20227;-66
2023/06/12 01:50:43;;;;;;;4.67;4.03;;;12.10;81.00;;;;;;2103521;28;20222;-66
2023/06/12 01:51:44;;;;;;;5.97;4.32;;;12.10;81.40;;;;;;2102234;28;20261;-66
2023/06/12 01:52:45;;;;;;;4.47;4.07;;;12.10;82.50;;;;;;2103276;28;20226;-65
2023/06/12 01:53:46;;;;;;;4.72;4.22;;;12.10;82.40;;;;;;2102616;28;20632;-65
2023/06/12 01:54:50;;;;;;;4.37;3.97;;;12.10;81.70;;;;;;2103403;28;20329;-66
2023/06/12 01:55:53;;;;;;;5.35;4.57;;;12.00;81.50;;;;;;2099971;28;20227;-67
2023/06/12 01:56:55;;;;;;;5.53;4.72;;;12.00;81.80;;;;;;2100204;28;20227;-66
2023/06/12 01:57:55;;;;;;;6.72;4.60;;;12.00;81.90;;;;;;2103039;28;20290;-66
2023/06/12 01:58:56;;;;;;;4.93;4.43;;;12.00;82.00;;;;;;2103386;28;20288;-66
2023/06/12 01:59:57;;;;;;;4.93;4.33;;;12.00;82.00;;;;;;2104459;28;20583;-65
2023/06/12 02:00:59;;;;;;;5.10;4.00;;;12.00;82.00;;;;;;2103497;28;20543;-66
2023/06/12 02:02:01;;;;;;;7.75;4.50;;;12.00;82.20;;;;;;2095355;28;20227;-66
2023/06/12 02:03:03;;;;;;;6.10;4.05;;;12.00;82.30;;;;;;2094318;28;20278;-66
2023/06/12 02:04:04;;;;;;;4.68;4.28;;;12.00;82.10;;;;;;2093055;28;20187;-66
2023/06/12 02:05:06;;;;;;;4.78;4.25;;;12.00;82.10;;;;;;2094808;28;20184;-66
2023/06/12 02:06:06;;;;;;;5.30;4.75;;;11.90;81.80;;;;;;2103537;28;20217;-66
2023/06/12 02:07:10;;;;;;;5.83;4.70;;;11.90;81.70;;;;;;2098904;28;20633;-66
2023/06/12 02:08:10;;;;;;;4.63;4.22;;;11.90;82.30;;;;;;2102169;28;20319;-65
2023/06/12 02:09:13;;;;;;;4.38;3.92;;;11.80;82.70;;;;;;2099331;28;20179;-66
2023/06/12 02:10:15;;;;;;;5.93;4.75;;;11.80;82.90;;;;;;2103471;28;20681;-66
2023/06/12 02:11:17;;;;;;;4.22;3.75;;;11.80;83.00;;;;;;2087204;28;20184;-66
2023/06/12 02:12:18;;;;;;;5.65;4.70;;;11.80;83.30;;;;;;2083427;28;20224;-66
2023/06/12 02:13:19;;;;;;;5.23;4.73;;;11.80;83.20;;;;;;2094081;28;20184;-66
2023/06/12 02:14:20;;;;;;;6.10;4.80;;;11.80;83.30;;;;;;2094962;28;20183;-66
2023/06/12 02:15:21;;;;;;;5.65;4.57;;;11.80;83.40;;;;;;2095293;28;20545;-66
2023/06/12 02:16:23;;;;;;;4.40;4.00;;;11.80;83.30;;;;;;2102849;28;20722;-66
2023/06/12 02:17:24;;;;;;;4.47;4.07;;;11.80;83.80;;;;;;2104572;28;20231;-66
2023/06/12 02:18:25;;;;;;;5.45;4.57;;;11.70;84.00;;;;;;2101450;28;20231;-66
2023/06/12 02:19:25;;;;;;;4.73;4.23;;;11.80;84.10;;;;;;2101914;28;20260;-66
2023/06/12 02:20:26;;;;;;;4.87;4.10;;;11.80;84.00;;;;;;2103217;28;20268;-65
2023/06/12 02:21:27;;;;;;;4.40;4.00;;;11.80;84.80;;;;;;2086926;28;20654;-66
2023/06/12 02:22:27;;;;;;;4.60;4.17;;;11.80;83.70;;;;;;2086766;28;20254;-65
2023/06/12 02:23:28;;;;;;;5.73;4.30;;;11.90;83.80;;;;;;2100950;28;20230;-65
2023/06/12 02:24:31;;;;;;;5.10;4.37;;;11.90;83.60;;;;;;2108980;28;20329;-66
2023/06/12 02:25:32;;;;;;;5.50;4.50;;;11.90;83.50;;;;;;2093730;28;20226;-65
2023/06/12 02:26:33;;;;;;;5.37;4.17;;;11.90;83.40;;;;;;2086827;28;20317;-65
2023/06/12 02:27:33;;;;;;;4.93;4.43;;;11.90;83.60;;;;;;2087134;28;20258;-65
2023/06/12 02:28:34;;;;;;;5.20;4.70;;;11.90;83.50;;;;;;2095412;28;20234;-66
2023/06/12 02:29:35;;;;;;;7.23;4.70;;;11.90;83.70;;;;;;2104136;28;20233;-65
2023/06/12 02:30:35;;;;;;;6.10;4.97;;;11.90;83.80;;;;;;2102029;28;20230;-65
2023/06/12 02:31:36;;;;;;;5.63;5.00;;;11.80;84.00;;;;;;2104266;28;20379;-65
2023/06/12 02:32:38;;;;;;;7.10;4.97;;;11.80;84.10;;;;;;2089525;28;20325;-66
2023/06/12 02:33:40;;;;;;;4.95;4.15;;;11.80;84.00;;;;;;2090898;28;20235;-64
2023/06/12 02:34:40;;;;;;;4.63;4.13;;;11.80;83.90;;;;;;2102107;28;20250;-65
2023/06/12 02:35:42;;;;;;;4.83;4.30;;;11.80;84.00;;;;;;2098146;28;20222;-65
2023/06/12 02:36:43;;;;;;;4.78;4.32;;;11.80;84.10;;;;;;2101591;28;20237;-66
2023/06/12 02:37:44;;;;;;;5.05;4.47;;;11.70;84.10;;;;;;2093958;28;20364;-65
2023/06/12 02:38:44;;;;;;;5.30;4.40;;;11.70;84.20;;;;;;2103444;28;20934;-65
2023/06/12 02:39:45;;;;;;;5.30;4.80;;;11.70;84.50;;;;;;2102290;28;20230;-65
2023/06/12 02:40:46;;;;;;;8.00;5.37;;;11.70;84.70;;;;;;2101729;28;20692;-65
2023/06/12 02:41:48;;;;;;;5.47;4.90;;;11.60;85.00;;;;;;2103689;28;20317;-65
2023/06/12 02:42:49;;;;;;;4.95;4.45;;;11.60;85.10;;;;;;2103869;28;20626;-66
2023/06/12 02:43:50;;;;;;;5.60;4.50;;;11.50;85.60;;;;;;2103564;28;20258;-65
2023/06/12 02:44:50;;;;;;;5.73;4.43;;;11.40;86.00;;;;;;2103838;28;20233;-65
2023/06/12 02:45:52;;;;;;;5.50;4.50;;;11.40;86.70;;;;;;2103516;28;20233;-65
2023/06/12 02:46:55;;;;;;;4.68;4.22;;;11.30;87.00;;;;;;2095110;28;20238;-65
2023/06/12 02:47:56;;;;;;;5.20;4.30;;;11.30;87.50;;;;;;2099713;28;20269;-65
2023/06/12 02:48:56;;;;;;;5.60;4.53;;;11.20;88.10;;;;;;2101609;28;20238;-65
2023/06/12 02:49:57;;;;;;;5.10;4.57;;;11.20;88.30;;;;;;2101618;28;20234;-65
2023/06/12 02:50:58;;;;;;;5.33;4.20;;;11.20;87.90;;;;;;2101568;28;20256;-65
2023/06/12 02:51:58;;;;;;;8.93;5.03;;;11.30;88.10;;;;;;2100056;28;20268;-66
2023/06/12 02:53:01;;;;;;;4.83;4.43;;;11.30;88.10;;;;;;2099520;28;20323;-65
2023/06/12 02:54:02;;;;;;;5.03;4.38;;;11.30;87.90;;;;;;2100230;28;20623;-66
2023/06/12 02:55:04;;;;;;;5.57;4.97;;;11.40;87.40;;;;;;2100720;28;20195;-65
2023/06/12 02:56:04;;;;;;;4.65;3.97;;;11.40;87.30;;;;;;2099328;28;20217;-65
2023/06/12 02:57:05;;;;;;;5.23;4.43;;;11.40;87.30;;;;;;2099395;28;20187;-65
2023/06/12 02:58:07;;;;;;;4.80;4.30;;;11.40;87.60;;;;;;2100453;28;20267;-66
2023/06/12 02:59:10;;;;;;;4.85;4.35;;;11.40;87.80;;;;;;2101391;28;20230;-66
2023/06/12 03:00:13;;;;;;;5.40;4.63;;;11.40;87.80;;;;;;2099467;28;20222;-66
2023/06/12 03:01:16;;;;;;;4.88;4.32;;;11.30;87.80;;;;;;2092706;28;20373;-65
2023/06/12 03:02:19;;;;;;;4.57;3.95;;;11.30;87.90;;;;;;2100664;28;20228;-65
2023/06/12 03:03:20;;;;;;;4.85;4.35;;;11.30;88.20;;;;;;2101271;28;20600;-65
2023/06/12 03:04:22;;;;;;;4.78;4.38;;;11.30;88.10;;;;;;2103986;28;20237;-65
2023/06/12 03:05:25;;;;;;;5.43;4.82;;;11.30;87.80;;;;;;2101523;28;20227;-67
2023/06/12 03:06:28;;;;;;;4.75;4.35;;;11.30;87.70;;;;;;2101206;28;20245;-65
2023/06/12 03:07:29;;;;;;;5.03;4.50;;;11.30;87.80;;;;;;2097636;28;20234;-65
2023/06/12 03:08:31;;;;;;;5.10;4.60;;;11.30;87.80;;;;;;2100835;28;20231;-65
2023/06/12 03:09:34;;;;;;;5.13;4.60;;;11.30;88.10;;;;;;2096734;28;20230;-65
2023/06/12 03:10:35;;;;;;;6.07;4.40;;;11.20;88.30;;;;;;2096940;28;20218;-65
2023/06/12 03:11:38;;;;;;;5.07;4.57;;;11.20;88.30;;;;;;2096592;28;20360;-65
2023/06/12 03:12:38;;;;;;;7.15;5.18;;;11.20;88.40;;;;;;2100156;28;20222;-65
2023/06/12 03:13:39;;;;;;;6.43;4.83;;;11.20;88.50;;;;;;2100210;28;20225;-65
2023/06/12 03:14:42;;;;;;;5.63;4.83;;;11.20;88.70;;;;;;2102478;28;20230;-65
2023/06/12 03:15:42;;;;;;;6.35;4.72;;;11.20;89.00;;;;;;2096939;28;20471;-65
2023/06/12 03:16:43;;;;;;;4.70;4.20;;;11.20;89.00;;;;;;2093780;28;20231;-65
2023/06/12 03:17:44;;;;;;;6.27;4.97;;;11.10;89.10;;;;;;2103314;28;20225;-65
2023/06/12 03:18:44;;;;;;;4.33;3.93;;;11.10;89.10;;;;;;2103771;28;20241;-66
2023/06/12 03:19:46;;;;;;;6.57;4.32;;;11.10;90.10;;;;;;2096542;28;20231;-66
2023/06/12 03:20:46;;;;;;;5.30;4.80;;;11.10;89.50;;;;;;2096297;28;20317;-65
2023/06/12 03:21:47;;;;;;;5.87;4.77;;;11.10;89.60;;;;;;2096294;28;21187;-66
2023/06/12 03:22:48;;;;;;;5.10;4.60;;;11.10;89.80;;;;;;2104410;28;20228;-65
2023/06/12 03:23:51;;;;;;;7.03;4.90;;;11.00;89.60;;;;;;2095530;28;20264;-66
2023/06/12 03:24:53;;;;;;;4.85;3.90;;;11.00;89.70;;;;;;2096853;28;20300;-66
2023/06/12 03:25:54;;;;;;;7.07;4.68;;;11.00;89.60;;;;;;2104191;28;20226;-65
2023/06/12 03:26:57;;;;;;;6.60;4.70;;;11.00;89.60;;;;;;2096639;28;20743;-66
2023/06/12 03:27:57;;;;;;;6.60;5.30;;;11.00;90.40;;;;;;2100726;28;20255;-65
2023/06/12 03:28:58;;;;;;;4.93;4.50;;;11.10;89.80;;;;;;2105484;28;20711;-66
2023/06/12 03:29:59;;;;;;;5.80;4.60;;;11.00;90.00;;;;;;2104861;28;20237;-65
2023/06/12 03:31:00;;;;;;;6.13;5.10;;;11.10;90.00;;;;;;2103889;28;20625;-66
2023/06/12 03:32:01;;;;;;;5.23;4.73;;;11.10;90.00;;;;;;2104823;28;20201;-67
2023/06/12 03:33:02;;;;;;;4.67;4.03;;;11.10;89.70;;;;;;2096153;28;20195;-66
2023/06/12 03:34:03;;;;;;;6.03;5.03;;;11.10;89.40;;;;;;2104606;28;20297;-65
2023/06/12 03:35:04;;;;;;;6.20;4.83;;;11.10;89.20;;;;;;2104982;28;20212;-65
2023/06/12 03:36:06;;;;;;;5.35;4.80;;;11.10;88.90;;;;;;2101314;28;20432;-65
2023/06/12 03:37:08;;;;;;;5.47;4.70;;;11.10;89.10;;;;;;2096388;28;20607;-65
2023/06/12 03:38:09;;;;;;;5.60;4.57;;;11.10;89.40;;;;;;2096999;28;20685;-65
2023/06/12 03:39:10;;;;;;;7.47;5.75;;;11.10;89.30;;;;;;2100670;28;20201;-65
2023/06/12 03:40:11;;;;;;;5.80;4.70;;;11.10;89.20;;;;;;2100868;28;20215;-65
2023/06/12 03:41:12;;;;;;;5.00;4.47;;;11.10;89.80;;;;;;2113556;28;20220;-65
2023/06/12 03:42:15;;;;;;;4.83;4.27;;;11.10;90.10;;;;;;2108266;28;20190;-66
2023/06/12 03:43:15;;;;;;;5.75;4.90;;;11.00;90.10;;;;;;2104972;28;20189;-66
2023/06/12 03:44:16;;;;;;;6.77;5.00;;;11.00;90.10;;;;;;2104497;28;20194;-65
2023/06/12 03:45:17;;;;;;;5.63;4.50;;;11.00;90.10;;;;;;2098804;28;20191;-66
2023/06/12 03:46:17;;;;;;;5.53;4.63;;;11.00;90.00;;;;;;2104899;28;20181;-66
2023/06/12 03:47:18;;;;;;;5.10;4.60;;;11.00;90.00;;;;;;2104817;28;20609;-65
2023/06/12 03:48:19;;;;;;;5.93;4.67;;;11.00;90.00;;;;;;2101176;28;20195;-66
2023/06/12 03:49:21;;;;;;;5.63;5.00;;;11.00;90.00;;;;;;2101574;28;20377;-66
2023/06/12 03:50:22;;;;;;;5.03;4.53;;;11.00;89.90;;;;;;2101788;28;20231;-66
2023/06/12 03:51:23;;;;;;;4.93;4.50;;;10.90;90.00;;;;;;2100466;28;20284;-66
2023/06/12 03:52:24;;;;;;;5.20;4.70;;;11.00;90.20;;;;;;2104055;28;20691;-66
2023/06/12 03:53:24;;;;;;;5.27;4.77;;;11.00;90.10;;;;;;2104275;28;20229;-66
2023/06/12 03:54:25;;;;;;;5.53;4.67;;;11.00;90.10;;;;;;2100667;28;20473;-66
2023/06/12 03:55:26;;;;;;;5.83;5.00;;;11.00;90.60;;;;;;2103679;28;20241;-66
2023/06/12 03:56:26;;;;;;;5.53;4.67;;;11.00;90.20;;;;;;2109763;28;20607;-66
2023/06/12 03:57:27;;;;;;;5.07;4.50;;;11.00;90.20;;;;;;2099771;28;20283;-66
2023/06/12 03:58:28;;;;;;;10.33;5.07;;;11.10;90.10;;;;;;2095253;28;20231;-66
2023/06/12 03:59:29;;;;;;;5.57;4.97;;;11.10;90.10;;;;;;2104422;28;20221;-66
2023/06/12 04:00:30;;;;;;;5.13;4.63;;;11.10;89.90;;;;;;2102510;28;20327;-66
2023/06/12 04:01:31;;;;;;;6.87;4.93;;;11.10;89.70;;;;;;2100884;28;20255;-66
2023/06/12 04:02:31;;;;;;;6.53;4.75;;;11.20;89.80;;;;;;2102256;28;20231;-66
2023/06/12 04:03:34;;;;;;;5.70;5.10;;;11.20;89.60;;;;;;2102316;28;20230;-66
2023/06/12 04:04:35;;;;;;;6.05;4.40;;;11.20;89.50;;;;;;2103700;28;20317;-65
2023/06/12 04:05:35;;;;;;;5.37;4.77;;;11.10;89.40;;;;;;2104884;28;20256;-66
2023/06/12 04:06:40;;;;;;;5.37;4.27;;;11.20;89.30;;;;;;2103723;28;20230;-66
2023/06/12 04:07:41;;;;;;;4.72;4.20;;;11.10;89.30;;;;;;2103838;28;20243;-66
2023/06/12 04:08:44;;;;;;;5.23;4.60;;;11.10;89.50;;;;;;2096662;28;20261;-66
2023/06/12 04:09:45;;;;;;;5.40;4.90;;;11.20;89.90;;;;;;2105056;28;20272;-66
2023/06/12 04:10:46;;;;;;;5.70;4.77;;;11.10;90.00;;;;;;2103349;28;20321;-66
2023/06/12 04:11:46;;;;;;;4.93;4.43;;;11.10;90.20;;;;;;2104435;28;20229;-66
2023/06/12 04:12:47;;;;;;;5.40;4.53;;;11.10;90.50;;;;;;2104422;28;20227;-66
2023/06/12 04:13:48;;;;;;;5.60;5.03;;;11.00;90.60;;;;;;2103887;28;20241;-66
2023/06/12 04:14:49;;;;;;;5.83;4.93;;;11.10;90.80;;;;;;2097287;28;20790;-66
2023/06/12 04:15:51;;;;;;;5.35;4.82;;;11.10;90.80;;;;;;2095047;28;20250;-66
2023/06/12 04:16:51;;;;;;;5.07;4.57;;;11.10;90.70;;;;;;2098879;28;20222;-66
2023/06/12 04:17:52;;;;;;;6.80;4.43;;;11.10;90.50;;;;;;2103538;28;20242;-66
2023/06/12 04:18:53;;;;;;;5.53;4.87;;;11.20;90.50;;;;;;2091281;28;20286;-66
2023/06/12 04:19:56;;;;;;;6.65;4.70;;;11.30;90.60;;;;;;2092353;28;20230;-66
2023/06/12 04:20:57;;;;;;;5.10;4.60;;;11.20;90.40;;;;;;2100209;28;20699;-66
2023/06/12 04:22:00;;;;;;;5.03;4.47;;;11.30;90.80;;;;;;2104858;28;20317;-66
2023/06/12 04:23:04;;;;;;;5.43;4.80;;;11.30;90.30;;;;;;2094045;28;20230;-66
2023/06/12 04:24:13;;;;;;;5.80;5.13;;;11.40;90.30;;;;;;2104445;28;20555;-66
2023/06/12 04:25:14;;;;;;;5.97;4.45;;;11.40;90.40;;;;;;2105103;28;20217;-66
2023/06/12 04:26:15;;;;;;;5.43;4.93;;;11.40;90.50;;;;;;2103123;28;20190;-66
2023/06/12 04:27:17;;;;;;;5.78;4.70;;;11.50;90.50;;;;;;2096404;28;20236;-66
2023/06/12 04:28:21;;;;;;;6.18;5.28;;;11.50;90.40;;;;;;2096903;28;20668;-66
2023/06/12 04:29:24;;;;;;;5.32;4.70;;;11.50;90.20;;;;;;2102541;28;20226;-66
2023/06/12 04:30:25;;;;;;;5.57;4.95;;;11.60;90.10;;;;;;2105526;28;20234;-66
2023/06/12 04:31:26;;;;;;;4.55;4.15;;;11.60;90.00;;;;;;2102336;28;20218;-66
2023/06/12 04:32:29;;;;;;;6.57;5.33;;;11.70;89.70;;;;;;2104767;28;20234;-66
2023/06/12 04:33:32;;;;;;;6.13;4.85;;;11.70;89.10;;;;;;2103183;28;20231;-65
2023/06/12 04:34:39;;;;;;;7.15;4.88;;;11.70;88.90;;;;;;2104654;28;20302;-66
2023/06/12 04:35:41;;;;;;;5.88;4.75;;;11.70;88.80;;;;;;2104684;28;20242;-66
2023/06/12 04:36:41;;;;;;;6.05;5.18;;;11.80;88.80;;;;;;2099803;28;20325;-66
2023/06/12 04:37:42;;;;;;;6.07;4.70;;;11.80;88.60;;;;;;2095765;28;20262;-66
2023/06/12 04:38:50;;;;;;;6.78;5.60;;;11.70;88.90;;;;;;2096358;28;20228;-66
2023/06/12 04:39:52;;;;;;;6.28;5.00;;;11.80;89.10;;;;;;2104872;28;20222;-66
2023/06/12 04:40:54;;;;;;;7.78;5.85;;;11.80;89.10;;;;;;2101341;28;20238;-66
2023/06/12 04:41:56;;;;;;;7.25;4.97;;;11.80;89.20;;;;;;2094242;28;20231;-66
2023/06/12 04:42:57;;;;;;;6.63;5.20;;;11.80;89.30;;;;;;2092358;28;20239;-66
2023/06/12 04:44:03;;;;;;;5.82;4.93;;;11.90;89.20;;;;;;2104508;28;20223;-66
2023/06/12 04:45:04;;;;;;;7.80;5.18;;;11.90;89.30;;;;;;2103241;28;20234;-66
2023/06/12 04:46:07;;;;;;;5.90;5.00;;;11.80;89.40;;;;;;2095439;28;20195;-66
2023/06/12 04:47:10;;;;;;;5.40;4.90;;;11.90;89.60;;;;;;2096265;28;20233;-66
2023/06/12 04:48:12;;;;;;;8.38;5.68;;;11.90;89.30;;;;;;2094518;28;20219;-66
2023/06/12 04:49:13;;;;;;;6.85;5.20;;;11.90;89.50;;;;;;2087266;28;20180;-66
2023/06/12 04:50:14;;;;;;;5.63;5.05;;;11.90;88.80;;;;;;2096402;28;20229;-66
2023/06/12 04:51:15;;;;;;;5.90;5.03;;;11.90;88.30;;;;;;2095966;28;20191;-66
2023/06/12 04:52:18;;;;;;;5.93;4.97;;;11.90;88.30;;;;;;2101704;28;20629;-66
2023/06/12 04:53:27;;;;;;;6.75;5.30;;;11.80;88.80;;;;;;2105102;28;20194;-66
2023/06/12 04:54:35;;;;;;;6.10;5.07;;;11.80;89.30;;;;;;2099333;28;20228;-66
2023/06/12 04:55:36;;;;;;;6.15;5.03;;;11.80;89.00;;;;;;2101724;28;20716;-66
2023/06/12 04:56:40;;;;;;;5.83;5.23;;;11.90;88.70;;;;;;2096076;28;20231;-67
2023/06/12 04:57:43;;;;;;;9.65;5.90;;;11.90;88.60;;;;;;2096937;28;20234;-66
2023/06/12 04:58:45;;;;;;;6.57;5.55;;;11.90;88.70;;;;;;2104765;28;20281;-66
2023/06/12 04:59:48;;;;;;;6.63;5.53;;;11.90;89.10;;;;;;2104576;28;20314;-66
2023/06/12 05:00:49;;;;;;;5.85;5.25;;;11.90;89.40;;;;;;2101000;28;20242;-67
2023/06/12 05:01:51;;;;;;;6.43;5.57;;;11.90;89.70;;;;;;2101709;28;20369;-67
2023/06/12 05:02:53;;;;;;;7.10;5.60;;;11.90;89.70;;;;;;2104026;28;20218;-66
2023/06/12 05:03:54;;;;;;;6.10;5.22;;;12.00;89.50;;;;;;2099443;28;20644;-66
2023/06/12 05:04:54;;;;;;;6.60;5.00;;;12.00;90.30;;;;;;2104607;28;20230;-66
2023/06/12 05:05:56;;;;;;;7.93;5.40;;;11.90;89.80;;;;;;2107353;28;20320;-66
2023/06/12 05:06:57;;;;;;;7.78;5.40;;;11.90;90.10;;;;;;2101085;28;20283;-66
2023/06/12 05:07:58;;;;;;;6.93;5.35;;;12.00;90.30;;;;;;2105454;28;20234;-66
2023/06/12 05:09:05;;;;;;;7.83;5.50;;;12.00;90.20;;;;;;2101089;28;20226;-66
2023/06/12 05:10:06;;;;;;;8.15;5.85;;;12.00;90.40;;;;;;2100617;28;20249;-66
2023/06/12 05:11:07;;;;;;;6.10;5.50;;;11.90;90.50;;;;;;2101852;28;20220;-66
2023/06/12 05:12:08;;;;;;;6.27;5.40;;;11.90;90.80;;;;;;2097172;28;20203;-65
2023/06/12 05:13:09;;;;;;;8.88;5.95;;;11.90;91.00;;;;;;2096493;28;20258;-66
2023/06/12 05:14:10;;;;;;;6.10;5.30;;;11.90;90.70;;;;;;2100793;28;20202;-66
2023/06/12 05:15:10;;;;;;;6.70;5.63;;;12.00;90.90;;;;;;2104428;28;20195;-66
2023/06/12 05:16:11;;;;;;;6.43;5.40;;;12.00;91.00;;;;;;2100791;28;20199;-66
2023/06/12 05:17:12;;;;;;;8.73;5.30;;;12.00;90.80;;;;;;2103118;28;20524;-66
2023/06/12 05:18:12;;;;;;;6.30;5.70;;;12.10;90.80;;;;;;2101937;28;20206;-66
2023/06/12 05:19:13;;;;;;;6.67;5.20;;;12.20;90.50;;;;;;2095344;28;20195;-66
2023/06/12 05:20:15;;;;;;;6.37;4.93;;;12.30;90.70;;;;;;2104845;28;20285;-66
2023/06/12 05:21:18;;;;;;;5.65;5.15;;;12.30;90.60;;;;;;2104969;28;20187;-66
2023/06/12 05:22:19;;;;;;;6.32;5.38;;;12.30;91.00;;;;;;2100141;28;20183;-66
2023/06/12 05:23:20;;;;;;;7.30;4.50;;;12.40;90.30;;;;;;2089162;28;20846;-66
2023/06/12 05:24:21;;;;;;;5.50;5.00;;;12.40;90.80;;;;;;2095142;28;20223;-66
2023/06/12 05:25:21;;;;;;;6.87;4.97;;;12.40;90.80;;;;;;2104020;28;20253;-66
2023/06/12 05:26:23;;;;;;;6.80;4.87;;;12.50;90.90;;;;;;2100432;28;20782;-66